createdAt,value
2019-05-07T00:00:04.875Z,12
2019-05-07T00:15:04.714Z,11.9
2019-05-07T00:30:04.402Z,11.7
2019-05-07T00:45:16.779Z,11.6
2019-05-07T01:00:04.257Z,11.6
2019-05-07T01:15:04.602Z,11.5
2019-05-07T01:30:04.628Z,11.3
2019-05-07T01:45:04.369Z,11.2
2019-05-07T02:00:04.170Z,11.2
2019-05-07T02:15:04.947Z,11.1
2019-05-07T02:30:04.951Z,11
2019-05-07T02:45:04.631Z,10.9
2019-05-07T03:00:04.799Z,10.7
2019-05-07T03:15:04.889Z,10.7
2019-05-07T03:30:04.618Z,10.6
2019-05-07T03:45:05.008Z,10.5
2019-05-07T04:00:04.509Z,10.4
2019-05-07T04:15:04.287Z,10.4
2019-05-07T04:30:04.057Z,10.3
2019-05-07T04:45:04.566Z,10.2
2019-05-07T05:00:04.965Z,10.1
2019-05-07T05:15:04.208Z,10.1
2019-05-07T05:30:04.722Z,10.2
2019-05-07T05:45:04.177Z,10.2
2019-05-07T06:00:04.594Z,10.4
2019-05-07T06:15:04.371Z,10.6
2019-05-07T06:30:05.150Z,10.7
2019-05-07T06:45:04.990Z,10.9
2019-05-07T07:00:04.223Z,11.1
2019-05-07T07:15:05.008Z,11.2
2019-05-07T07:30:04.958Z,11.7
2019-05-07T07:45:04.237Z,12.3
2019-05-07T08:00:04.504Z,13
2019-05-07T08:15:16.608Z,13.6
2019-05-07T08:30:04.392Z,13.8
2019-05-07T08:45:04.176Z,14
2019-05-07T09:00:04.760Z,14.3
2019-05-07T09:15:04.762Z,14.5
2019-05-07T09:30:04.911Z,14.6
2019-05-07T09:45:04.647Z,14.3
2019-05-07T10:00:04.073Z,14
2019-05-07T10:15:04.626Z,14.3
2019-05-07T10:30:04.192Z,14.4
2019-05-07T10:45:04.446Z,14.4
2019-05-07T11:00:04.208Z,14.4
2019-05-07T11:15:04.453Z,14.5
2019-05-07T11:30:04.568Z,14.6
2019-05-07T11:45:04.917Z,14.8
2019-05-07T12:00:04.120Z,14.9
2019-05-07T12:15:04.900Z,15
2019-05-07T12:30:04.860Z,15.2
2019-05-07T12:45:04.203Z,15.1
2019-05-07T13:00:04.916Z,15.3
2019-05-07T13:15:04.758Z,15.4
2019-05-07T13:30:04.281Z,15.6
2019-05-07T13:45:04.605Z,15.6
2019-05-07T14:00:05.004Z,15.8
2019-05-07T14:15:04.605Z,15.8
2019-05-07T14:30:04.122Z,16
2019-05-07T14:45:04.680Z,16
2019-05-07T15:00:05.004Z,16.2
2019-05-07T15:15:04.746Z,16.2
2019-05-07T15:30:04.724Z,16.3
2019-05-07T15:45:04.478Z,16.4
2019-05-07T16:00:04.833Z,16.4
2019-05-07T16:15:04.156Z,16.5
2019-05-07T16:30:04.105Z,16.5
2019-05-07T16:45:04.860Z,16.6
2019-05-07T17:00:04.210Z,16.6
2019-05-07T17:15:04.487Z,16.7
2019-05-07T17:30:04.485Z,16.7
2019-05-07T17:45:04.268Z,16.8
2019-05-07T18:00:04.102Z,16.7
2019-05-07T18:15:04.479Z,16.7
2019-05-07T18:30:04.984Z,16.6
2019-05-07T18:45:04.214Z,16.5
2019-05-07T19:00:05.236Z,16.4
2019-05-07T19:15:04.626Z,16.3
2019-05-07T19:30:04.201Z,16.2
2019-05-07T19:45:04.523Z,16.2
2019-05-07T20:00:04.874Z,16.2
2019-05-07T20:15:04.190Z,16.1
2019-05-07T20:30:04.352Z,16
2019-05-07T20:45:04.597Z,16
2019-05-07T21:00:05.105Z,16
2019-05-07T21:15:04.560Z,15.9
2019-05-07T21:30:04.104Z,15.9
2019-05-07T21:45:04.370Z,15.8
2019-05-07T22:00:04.762Z,15.7
2019-05-07T22:15:04.659Z,15.7
2019-05-07T22:30:04.658Z,15.6
2019-05-07T22:45:04.929Z,15.5
2019-05-07T23:00:04.869Z,15.4
2019-05-07T23:15:04.274Z,15.4
2019-05-07T23:30:04.235Z,15.3
2019-05-07T23:45:04.615Z,15.3
